createdAt,value
2023-04-08T00:02:20.189Z,-10.05
2023-04-08T00:04:48.989Z,-10.06
2023-04-08T00:07:17.785Z,-10.05
2023-04-08T00:09:46.778Z,-10.35
2023-04-08T00:12:15.538Z,-10.43
2023-04-08T00:14:44.419Z,-10.18
2023-04-08T00:17:13.253Z,-10.25
2023-04-08T00:19:42.166Z,-10.34
2023-04-08T00:22:10.820Z,-10.34
2023-04-08T00:24:41.259Z,-10.25
2023-04-08T00:27:10.168Z,-10.79
2023-04-08T00:29:39.177Z,-10.11
2023-04-08T00:32:08.004Z,-10.22
2023-04-08T00:34:37.957Z,-10.07
2023-04-08T00:37:07.300Z,-10.21
2023-04-08T00:39:35.972Z,-10.24
2023-04-08T00:42:05.018Z,-10.44
2023-04-08T00:44:34.024Z,-10.73
2023-04-08T00:47:02.892Z,-10.13
2023-04-08T00:49:32.743Z,-10.03
2023-04-08T00:52:02.135Z,-9.88
2023-04-08T00:54:32.466Z,-9.93
2023-04-08T00:57:01.846Z,-9.76
2023-04-08T00:59:32.398Z,-10.38
2023-04-08T01:02:20.406Z,-9.87
2023-04-08T01:05:20.429Z,-9.78
2023-04-08T01:07:50.513Z,-9.83
2023-04-08T01:10:31.567Z,-9.76
2023-04-08T01:13:09.093Z,-9.51
2023-04-08T01:15:42.968Z,-9.44
2023-04-08T01:18:14.450Z,-9.63
2023-04-08T01:20:44.988Z,-9.37
2023-04-08T01:23:54.840Z,-9.23
2023-04-08T01:26:26.470Z,-9.15
2023-04-08T01:29:00.422Z,-9.77
2023-04-08T01:31:29.746Z,-9.23
2023-04-08T01:34:03.302Z,-8.96
2023-04-08T01:36:33.383Z,-9.07
2023-04-08T01:39:04.148Z,-8.82
2023-04-08T01:41:37.192Z,-8.81
2023-04-08T01:44:06.730Z,-8.85
2023-04-08T01:46:36.572Z,-8.68
2023-04-08T01:49:07.153Z,-8.61
2023-04-08T01:51:39.296Z,-8.43
2023-04-08T01:54:08.370Z,-8.46
2023-04-08T01:56:40.602Z,-8.21
2023-04-08T01:59:14.757Z,-7.63
2023-04-08T02:01:46.457Z,-6.01
2023-04-08T02:04:15.414Z,-4.88
2023-04-08T02:06:46.763Z,-3.83
2023-04-08T02:09:15.461Z,-3.27
2023-04-08T02:11:44.077Z,-2.50
2023-04-08T02:14:14.551Z,-1.93
2023-04-08T02:16:54.485Z,-1.38
2023-04-08T02:19:37.224Z,-1.97
2023-04-08T02:22:15.332Z,-0.80
2023-04-08T02:24:45.322Z,-0.47
2023-04-08T02:27:15.010Z,0.04
2023-04-08T02:29:47.044Z,0.50
2023-04-08T02:32:17.176Z,1.01
2023-04-08T02:34:48.641Z,1.03
2023-04-08T02:37:17.360Z,1.14
2023-04-08T02:39:46.348Z,1.38
2023-04-08T02:42:15.407Z,1.18
2023-04-08T02:44:44.187Z,0.90
2023-04-08T02:47:13.081Z,0.14
2023-04-08T02:49:41.842Z,0.17
2023-04-08T02:52:10.683Z,-0.09
2023-04-08T02:54:39.348Z,0.07
2023-04-08T02:57:08.084Z,-0.05
2023-04-08T02:59:38.400Z,-0.34
2023-04-08T03:02:07.218Z,-0.69
2023-04-08T03:04:35.901Z,-0.72
2023-04-08T03:07:05.338Z,-1.00
2023-04-08T03:09:35.399Z,-0.68
2023-04-08T03:12:04.334Z,-1.58
2023-04-08T03:14:33.239Z,-1.63
2023-04-08T03:17:01.947Z,-1.95
2023-04-08T03:19:30.961Z,-1.90
2023-04-08T03:21:59.765Z,-1.78
2023-04-08T03:24:28.504Z,-1.68
2023-04-08T03:26:57.227Z,-1.63
2023-04-08T03:29:26.125Z,-1.87
2023-04-08T03:31:55.207Z,-1.85
2023-04-08T03:34:24.087Z,-1.94
2023-04-08T03:36:53.006Z,-2.15
2023-04-08T03:39:21.823Z,-2.17
2023-04-08T03:41:50.646Z,-2.44
2023-04-08T03:44:19.420Z,-2.25
2023-04-08T03:46:48.122Z,-2.10
2023-04-08T03:49:17.000Z,-2.05
2023-04-08T03:51:45.960Z,-1.68
2023-04-08T03:54:14.756Z,-1.77
2023-04-08T03:56:43.691Z,-1.67
2023-04-08T03:59:12.516Z,-1.73
2023-04-08T04:01:42.080Z,-1.67
2023-04-08T04:04:11.272Z,-2.18
2023-04-08T04:06:40.428Z,-2.66
2023-04-08T04:09:09.459Z,-2.17
2023-04-08T04:11:38.616Z,-2.06
2023-04-08T04:14:07.425Z,-2.16
2023-04-08T04:16:36.236Z,-2.18
2023-04-08T04:19:05.194Z,-1.85
2023-04-08T04:21:35.318Z,-1.82
2023-04-08T04:24:04.284Z,-1.61
2023-04-08T04:26:33.216Z,-1.38
2023-04-08T04:29:01.942Z,-1.45
2023-04-08T04:31:31.585Z,-1.84
2023-04-08T04:34:00.218Z,-1.39
2023-04-08T04:36:29.098Z,-1.21
2023-04-08T04:38:57.979Z,-1.20
2023-04-08T04:41:28.003Z,-1.45
2023-04-08T04:43:57.166Z,-1.43
2023-04-08T04:46:26.064Z,-1.73
2023-04-08T04:48:54.690Z,-1.32
2023-04-08T04:51:25.995Z,-1.05
2023-04-08T04:53:54.557Z,-0.99
2023-04-08T04:56:23.334Z,-0.92
2023-04-08T04:58:54.595Z,-0.81
2023-04-08T05:01:23.409Z,-0.68
2023-04-08T05:03:52.199Z,-0.93
2023-04-08T05:06:20.979Z,-0.99
2023-04-08T05:08:50.069Z,-0.92
2023-04-08T05:11:22.600Z,-0.70
2023-04-08T05:13:51.459Z,-0.91
2023-04-08T05:16:20.197Z,-0.63
2023-04-08T05:18:49.383Z,-0.47
2023-04-08T05:21:18.501Z,-0.59
2023-04-08T05:23:47.380Z,-0.62
2023-04-08T05:26:16.636Z,-0.66
2023-04-08T05:28:45.343Z,-0.67
2023-04-08T05:31:17.576Z,-0.35
2023-04-08T05:33:46.820Z,-0.26
2023-04-08T05:36:16.175Z,-0.51
2023-04-08T05:38:45.064Z,-0.24
2023-04-08T05:41:13.971Z,-0.71
2023-04-08T05:43:42.828Z,-0.17
2023-04-08T05:46:12.163Z,-0.43
2023-04-08T05:48:41.233Z,0.21
2023-04-08T05:51:15.583Z,0.24
2023-04-08T05:53:46.018Z,0.18
2023-04-08T05:56:14.885Z,0.29
2023-04-08T05:58:46.371Z,0.10
2023-04-08T06:01:15.311Z,0.29
2023-04-08T06:03:44.266Z,0.43
2023-04-08T06:06:14.180Z,0.19
2023-04-08T06:08:42.893Z,0.13
2023-04-08T06:11:12.923Z,0.25
2023-04-08T06:13:43.498Z,0.11
2023-04-08T06:16:13.874Z,0.37
2023-04-08T06:18:42.967Z,0.55
2023-04-08T06:21:12.401Z,0.70
2023-04-08T06:23:41.146Z,0.57
2023-04-08T06:26:09.804Z,0.65
2023-04-08T06:28:38.445Z,0.26
2023-04-08T06:31:07.186Z,0.74
2023-04-08T06:33:36.247Z,0.52
2023-04-08T06:36:06.607Z,0.70
2023-04-08T06:38:35.504Z,0.67
2023-04-08T06:41:10.027Z,0.85
2023-04-08T06:43:38.802Z,0.74
2023-04-08T06:46:07.906Z,1.15
2023-04-08T06:48:38.386Z,1.00
2023-04-08T06:51:08.512Z,0.82
2023-04-08T06:53:37.324Z,0.81
2023-04-08T06:56:06.113Z,0.84
2023-04-08T06:58:35.112Z,0.78
2023-04-08T07:01:04.129Z,0.71
2023-04-08T07:03:33.217Z,0.96
2023-04-08T07:06:01.957Z,1.16
2023-04-08T07:08:30.919Z,1.03
2023-04-08T07:10:59.769Z,1.18
2023-04-08T07:13:28.724Z,1.00
2023-04-08T07:15:57.589Z,1.06
2023-04-08T07:18:27.172Z,0.47
2023-04-08T07:20:56.435Z,1.09
2023-04-08T07:23:25.328Z,1.25
2023-04-08T07:25:54.808Z,1.36
2023-04-08T07:28:23.731Z,1.46
2023-04-08T07:30:53.162Z,1.60
2023-04-08T07:33:22.110Z,1.59
2023-04-08T07:35:50.843Z,1.59
2023-04-08T07:38:19.709Z,1.46
2023-04-08T07:40:48.401Z,0.92
2023-04-08T07:43:17.296Z,1.58
2023-04-08T07:45:46.224Z,1.74
2023-04-08T07:48:14.818Z,1.85
2023-04-08T07:51:08.419Z,1.85
2023-04-08T07:53:32.748Z,1.86
2023-04-08T07:56:02.286Z,1.63
2023-04-08T07:58:32.891Z,1.83
2023-04-08T08:01:01.707Z,1.80
2023-04-08T08:03:32.547Z,1.43
2023-04-08T08:06:02.939Z,1.34
2023-04-08T08:08:34.246Z,1.45
2023-04-08T08:11:02.934Z,1.75
2023-04-08T08:13:31.790Z,1.69
2023-04-08T08:16:00.601Z,1.69
2023-04-08T08:18:29.267Z,1.88
2023-04-08T08:20:57.896Z,1.98
2023-04-08T08:23:26.608Z,1.91
2023-04-08T08:26:21.909Z,1.80
2023-04-08T08:28:50.673Z,1.78
2023-04-08T08:31:19.414Z,1.50
2023-04-08T08:33:48.505Z,1.64
2023-04-08T08:36:17.432Z,1.93
2023-04-08T08:38:46.261Z,1.89
2023-04-08T08:41:16.188Z,1.79
2023-04-08T08:43:45.834Z,1.66
2023-04-08T08:46:18.294Z,1.89
2023-04-08T08:48:47.251Z,1.74
2023-04-08T08:51:16.285Z,0.97
2023-04-08T08:53:46.193Z,1.16
2023-04-08T08:56:17.848Z,1.48
2023-04-08T08:58:48.169Z,1.18
2023-04-08T09:01:38.625Z,1.21
2023-04-08T09:04:17.562Z,1.51
2023-04-08T09:06:52.328Z,1.64
2023-04-08T09:09:20.794Z,1.57
2023-04-08T09:11:49.808Z,1.15
2023-04-08T09:14:23.312Z,1.66
2023-04-08T09:16:54.328Z,1.83
2023-04-08T09:19:23.328Z,1.64
2023-04-08T09:22:21.314Z,1.49
2023-04-08T09:24:50.039Z,1.36
2023-04-08T09:27:36.351Z,1.25
2023-04-08T09:30:15.631Z,1.19
2023-04-08T09:32:54.095Z,1.35
2023-04-08T09:35:24.299Z,1.29
2023-04-08T09:37:53.251Z,1.27
2023-04-08T09:40:27.092Z,1.20
2023-04-08T09:42:57.843Z,0.92
2023-04-08T09:45:28.880Z,0.93
2023-04-08T09:48:11.438Z,0.90
2023-04-08T09:50:48.953Z,0.83
2023-04-08T09:53:52.223Z,1.00
2023-04-08T09:56:22.597Z,0.89
2023-04-08T09:59:00.800Z,0.94
2023-04-08T10:01:53.693Z,0.88
2023-04-08T10:04:25.357Z,0.76
2023-04-08T10:06:58.814Z,0.71
2023-04-08T10:09:30.165Z,0.72
2023-04-08T10:11:59.204Z,0.52
2023-04-08T10:14:29.475Z,0.56
2023-04-08T10:17:29.306Z,0.62
2023-04-08T10:19:59.492Z,0.58
2023-04-08T10:22:31.107Z,0.56
2023-04-08T10:25:18.275Z,0.54
2023-04-08T10:27:47.135Z,0.26
2023-04-08T10:30:33.253Z,0.38
2023-04-08T10:33:02.943Z,0.40
2023-04-08T10:35:37.781Z,0.40
2023-04-08T10:38:08.089Z,0.31
2023-04-08T10:40:40.250Z,0.21
2023-04-08T10:43:12.901Z,0.27
2023-04-08T10:45:43.173Z,0.09
2023-04-08T10:48:18.532Z,0.12
2023-04-08T10:51:00.679Z,0.11
2023-04-08T10:53:39.996Z,0.20
2023-04-08T10:56:15.822Z,0.16
2023-04-08T10:58:59.876Z,0.16
2023-04-08T11:01:30.108Z,0.02
2023-04-08T11:04:00.183Z,0.16
2023-04-08T11:06:31.377Z,0.01
2023-04-08T11:09:01.025Z,0.22
2023-04-08T11:11:30.484Z,0.00
2023-04-08T11:13:59.393Z,0.02
2023-04-08T11:16:29.829Z,0.14
2023-04-08T11:18:59.587Z,-0.33
2023-04-08T11:21:29.769Z,0.18
2023-04-08T11:23:59.909Z,0.09
2023-04-08T11:26:29.178Z,0.18
2023-04-08T11:28:59.303Z,0.04
2023-04-08T11:31:32.578Z,-0.14
2023-04-08T11:34:03.986Z,-0.10
2023-04-08T11:36:32.878Z,-0.25
2023-04-08T11:39:01.569Z,-0.25
2023-04-08T11:41:39.605Z,-0.52
2023-04-08T11:44:09.303Z,-0.45
2023-04-08T11:46:38.108Z,-0.47
2023-04-08T11:49:08.919Z,-0.55
2023-04-08T11:51:59.870Z,-0.50
2023-04-08T11:54:33.158Z,-0.69
2023-04-08T11:57:04.102Z,-0.47
2023-04-08T11:59:35.837Z,-0.57
2023-04-08T12:02:05.528Z,-0.55
2023-04-08T12:04:34.967Z,-0.75
2023-04-08T12:07:03.780Z,-0.71
2023-04-08T12:09:32.371Z,-0.72
2023-04-08T12:12:02.106Z,-0.74
2023-04-08T12:14:31.003Z,-0.61
2023-04-08T12:17:00.995Z,-1.99
2023-04-08T12:19:30.844Z,-0.58
2023-04-08T12:22:01.214Z,-0.70
2023-04-08T12:24:30.379Z,-0.93
2023-04-08T12:26:59.219Z,-0.72
2023-04-08T12:29:27.824Z,-0.92
2023-04-08T12:31:56.802Z,-1.23
2023-04-08T12:34:25.700Z,-0.80
2023-04-08T12:36:54.446Z,-0.89
2023-04-08T12:39:23.279Z,-0.76
2023-04-08T12:41:52.384Z,-1.35
2023-04-08T12:44:21.667Z,-0.98
2023-04-08T12:46:50.554Z,-1.00
2023-04-08T12:49:19.587Z,-1.35
2023-04-08T12:51:51.103Z,-1.33
2023-04-08T12:54:19.888Z,-1.33
2023-04-08T12:56:49.604Z,-1.18
2023-04-08T12:59:18.683Z,-1.25
2023-04-08T13:01:47.908Z,-1.77
2023-04-08T13:04:16.835Z,-1.37
2023-04-08T13:06:45.563Z,-1.38
2023-04-08T13:09:15.963Z,-1.55
2023-04-08T13:11:44.705Z,-1.55
2023-04-08T13:14:14.522Z,-1.47
2023-04-08T13:16:46.058Z,-1.41
2023-04-08T13:19:15.017Z,-1.50
2023-04-08T13:21:45.496Z,-1.74
2023-04-08T13:24:14.897Z,-1.65
2023-04-08T13:26:43.804Z,-1.67
2023-04-08T13:29:12.528Z,-1.71
2023-04-08T13:31:41.651Z,-1.74
2023-04-08T13:34:10.688Z,-1.77
2023-04-08T13:36:39.458Z,-1.86
2023-04-08T13:39:08.246Z,-1.67
2023-04-08T13:41:37.191Z,-1.79
2023-04-08T13:44:06.572Z,-1.97
2023-04-08T13:46:35.349Z,-1.67
2023-04-08T13:49:04.277Z,-1.70
2023-04-08T13:51:34.109Z,-1.70
2023-04-08T13:54:06.284Z,-1.90
2023-04-08T13:56:35.602Z,-1.91
2023-04-08T13:59:04.698Z,-1.86
2023-04-08T14:01:34.167Z,-2.30
2023-04-08T14:04:03.628Z,-1.84
2023-04-08T14:06:33.173Z,-1.91
2023-04-08T14:09:01.985Z,-1.90
2023-04-08T14:11:31.462Z,-1.78
2023-04-08T14:14:00.341Z,-1.83
2023-04-08T14:16:32.308Z,-1.84
2023-04-08T14:19:01.369Z,-1.84
2023-04-08T14:21:30.708Z,-1.86
2023-04-08T14:24:01.341Z,-1.82
2023-04-08T14:26:31.877Z,-2.10
2023-04-08T14:29:01.005Z,-1.84
2023-04-08T14:31:29.953Z,-2.06
2023-04-08T14:33:59.728Z,-2.00
2023-04-08T14:36:29.314Z,-1.93
2023-04-08T14:38:59.009Z,-1.92
2023-04-08T14:41:27.848Z,-2.14
2023-04-08T14:43:57.290Z,-2.00
2023-04-08T14:46:29.042Z,-1.99
2023-04-08T14:48:59.549Z,-2.01
2023-04-08T14:51:32.421Z,-1.94
2023-04-08T14:54:02.966Z,-2.23
2023-04-08T14:56:32.309Z,-2.11
2023-04-08T14:59:01.468Z,-2.05
2023-04-08T15:01:32.998Z,-1.91
2023-04-08T15:04:01.907Z,-2.18
2023-04-08T15:06:32.180Z,-2.02
2023-04-08T15:09:01.994Z,-2.04
2023-04-08T15:11:30.999Z,-2.05
2023-04-08T15:13:59.983Z,-2.21
2023-04-08T15:16:29.220Z,-2.11
2023-04-08T15:19:01.080Z,-2.03
2023-04-08T15:21:30.141Z,-2.19
2023-04-08T15:23:59.688Z,-2.15
2023-04-08T15:26:28.700Z,-2.15
2023-04-08T15:28:59.768Z,-2.30
2023-04-08T15:31:28.922Z,-2.44
2023-04-08T15:33:59.206Z,-2.31
2023-04-08T15:36:28.307Z,-2.17
2023-04-08T15:38:57.072Z,-2.22
2023-04-08T15:41:28.559Z,-2.11
2023-04-08T15:43:57.866Z,-2.12
2023-04-08T15:46:27.235Z,-2.14
2023-04-08T15:48:56.384Z,-2.28
2023-04-08T15:51:25.514Z,-2.05
2023-04-08T15:53:54.392Z,-2.08
2023-04-08T15:56:23.542Z,-2.17
2023-04-08T15:58:53.661Z,-2.57
2023-04-08T16:01:22.598Z,-2.06
2023-04-08T16:03:51.755Z,-2.05
2023-04-08T16:06:20.639Z,-2.26
2023-04-08T16:08:49.649Z,-2.00
2023-04-08T16:11:18.872Z,-2.33
2023-04-08T16:13:48.454Z,-2.16
2023-04-08T16:16:17.751Z,-2.16
2023-04-08T16:18:47.558Z,-2.04
2023-04-08T16:21:16.534Z,-2.23
2023-04-08T16:23:45.319Z,-2.65
2023-04-08T16:26:14.503Z,-2.34
2023-04-08T16:28:43.341Z,-2.21
2023-04-08T16:31:12.529Z,-2.11
2023-04-08T16:33:41.399Z,-2.24
2023-04-08T16:36:10.958Z,-2.64
2023-04-08T16:38:39.659Z,-2.14
2023-04-08T16:41:10.655Z,-2.05
2023-04-08T16:43:40.083Z,-2.05
2023-04-08T16:46:18.018Z,-2.17
2023-04-08T16:48:47.197Z,-2.19
2023-04-08T16:51:16.261Z,-2.02
2023-04-08T16:53:44.939Z,-1.99
2023-04-08T16:56:18.121Z,-2.03
2023-04-08T16:58:47.269Z,-1.98
2023-04-08T17:01:16.402Z,-1.99
2023-04-08T17:03:45.491Z,-2.01
2023-04-08T17:06:15.101Z,-2.08
2023-04-08T17:08:44.540Z,-2.14
2023-04-08T17:11:15.876Z,-2.10
2023-04-08T17:13:45.900Z,-2.07
2023-04-08T17:16:17.209Z,-2.10
2023-04-08T17:18:47.245Z,-2.13
2023-04-08T17:21:16.619Z,-2.23
2023-04-08T17:23:46.112Z,-2.17
2023-04-08T17:26:14.864Z,-2.30
2023-04-08T17:28:44.182Z,-2.37
2023-04-08T17:31:13.105Z,-2.40
2023-04-08T17:33:42.045Z,-2.22
2023-04-08T17:36:11.431Z,-2.30
2023-04-08T17:38:40.632Z,-2.31
2023-04-08T17:41:10.562Z,-2.43
2023-04-08T17:43:39.603Z,-2.46
2023-04-08T17:46:08.690Z,-2.31
2023-04-08T17:48:37.960Z,-2.47
2023-04-08T17:51:07.832Z,-2.34
2023-04-08T17:53:36.979Z,-2.43
2023-04-08T17:56:06.536Z,-2.31
2023-04-08T17:58:36.051Z,-2.70
2023-04-08T18:01:05.143Z,-2.29
2023-04-08T18:03:34.219Z,-2.47
2023-04-08T18:06:03.943Z,-2.38
2023-04-08T18:08:33.182Z,-2.36
2023-04-08T18:11:07.150Z,-2.35
2023-04-08T18:13:36.458Z,-2.49
2023-04-08T18:16:05.321Z,-2.59
2023-04-08T18:18:37.839Z,-2.66
2023-04-08T18:21:06.683Z,-2.54
2023-04-08T18:23:35.900Z,-2.71
2023-04-08T18:26:05.443Z,-2.49
2023-04-08T18:28:34.122Z,-2.74
2023-04-08T18:31:04.193Z,-2.62
2023-04-08T18:33:33.661Z,-2.55
2023-04-08T18:36:15.253Z,-2.57
2023-04-08T18:38:45.379Z,-2.59
2023-04-08T18:41:14.648Z,-3.23
2023-04-08T18:43:43.843Z,-2.91
2023-04-08T18:46:12.579Z,-2.62
2023-04-08T18:48:42.360Z,-2.70
2023-04-08T18:51:13.161Z,-2.65
2023-04-08T18:53:42.605Z,-2.66
2023-04-08T18:56:21.983Z,-2.62
2023-04-08T18:58:51.906Z,-2.79
2023-04-08T19:01:20.875Z,-2.75
2023-04-08T19:03:50.031Z,-2.79
2023-04-08T19:06:21.699Z,-2.64
2023-04-08T19:08:50.420Z,-2.65
2023-04-08T19:11:20.349Z,-2.72
2023-04-08T19:13:50.170Z,-2.77
2023-04-08T19:16:19.670Z,-2.64
2023-04-08T19:18:48.519Z,-2.63
2023-04-08T19:21:17.944Z,-2.81
2023-04-08T19:23:49.956Z,-2.62
2023-04-08T19:26:19.157Z,-2.69
2023-04-08T19:28:48.618Z,-3.30
2023-04-08T19:31:19.585Z,-2.81
2023-04-08T19:33:49.274Z,-2.72
2023-04-08T19:36:19.397Z,-2.90
2023-04-08T19:38:49.157Z,-2.68
2023-04-08T19:41:18.616Z,-2.84
2023-04-08T19:43:48.464Z,-3.63
2023-04-08T19:46:17.475Z,-2.82
2023-04-08T19:48:47.221Z,-2.88
2023-04-08T19:51:17.842Z,-3.31
2023-04-08T19:53:47.499Z,-2.86
2023-04-08T19:56:17.096Z,-2.91
2023-04-08T19:58:46.458Z,-2.70
2023-04-08T20:01:15.954Z,-2.82
2023-04-08T20:03:51.004Z,-2.83
2023-04-08T20:06:20.725Z,-2.96
2023-04-08T20:08:51.051Z,-2.86
2023-04-08T20:11:21.078Z,-2.79
2023-04-08T20:13:52.041Z,-2.95
2023-04-08T20:16:21.349Z,-2.80
2023-04-08T20:18:50.390Z,-3.46
2023-04-08T20:21:19.307Z,-2.68
2023-04-08T20:23:47.958Z,-2.81
2023-04-08T20:26:17.556Z,-2.60
2023-04-08T20:28:46.897Z,-3.10
2023-04-08T20:31:16.728Z,-2.85
2023-04-08T20:33:46.375Z,-2.63
2023-04-08T20:36:15.292Z,-2.58
2023-04-08T20:38:44.508Z,-3.85
2023-04-08T20:41:18.223Z,-2.41
2023-04-08T20:43:47.295Z,-2.53
2023-04-08T20:46:16.327Z,-2.41
2023-04-08T20:48:45.573Z,-2.43
2023-04-08T20:51:14.417Z,-2.96
2023-04-08T20:53:44.530Z,-2.49
2023-04-08T20:56:13.403Z,-2.40
2023-04-08T20:58:42.648Z,-3.02
2023-04-08T21:01:12.505Z,-2.52
2023-04-08T21:03:41.295Z,-2.83
2023-04-08T21:06:21.252Z,-2.63
2023-04-08T21:08:52.079Z,-2.47
2023-04-08T21:11:21.840Z,-3.33
2023-04-08T21:13:50.652Z,-2.59
2023-04-08T21:16:19.464Z,-2.69
2023-04-08T21:18:48.292Z,-2.69
2023-04-08T21:21:17.609Z,-2.80
2023-04-08T21:23:46.882Z,-2.80
2023-04-08T21:26:15.876Z,-2.78
2023-04-08T21:28:44.900Z,-2.61
2023-04-08T21:31:14.347Z,-2.62
2023-04-08T21:33:43.102Z,-2.90
2023-04-08T21:36:12.567Z,-2.81
2023-04-08T21:38:42.608Z,-2.75
2023-04-08T21:41:11.534Z,-2.67
2023-04-08T21:43:40.139Z,-2.93
2023-04-08T21:46:09.537Z,-2.69
2023-04-08T21:48:38.370Z,-2.84
2023-04-08T21:51:07.933Z,-3.28
2023-04-08T21:53:38.128Z,-2.80
2023-04-08T21:56:08.986Z,-2.85
2023-04-08T21:58:37.790Z,-2.74
2023-04-08T22:01:07.074Z,-2.74
2023-04-08T22:03:36.398Z,-2.86
2023-04-08T22:06:08.211Z,-2.66
2023-04-08T22:08:37.959Z,-2.77
2023-04-08T22:11:12.668Z,-3.17
2023-04-08T22:13:41.692Z,-2.66
2023-04-08T22:16:11.748Z,-2.73
2023-04-08T22:18:41.333Z,-2.62
2023-04-08T22:21:13.046Z,-2.62
2023-04-08T22:23:44.389Z,-3.22
2023-04-08T22:26:15.168Z,-2.71
2023-04-08T22:28:44.669Z,-2.76
2023-04-08T22:31:13.950Z,-2.65
2023-04-08T22:33:43.257Z,-2.82
2023-04-08T22:36:13.445Z,-2.65
2023-04-08T22:38:43.817Z,-2.66
2023-04-08T22:41:20.152Z,-4.15
2023-04-08T22:43:49.493Z,-2.93
2023-04-08T22:46:22.014Z,-2.66
2023-04-08T22:48:54.802Z,-2.69
2023-04-08T22:51:26.516Z,-2.68
2023-04-08T22:53:55.782Z,-2.74
2023-04-08T22:56:26.986Z,-2.66
2023-04-08T22:58:56.637Z,-3.16
2023-04-08T23:01:25.342Z,-3.26
2023-04-08T23:03:54.432Z,-2.57
2023-04-08T23:06:23.520Z,-2.61
2023-04-08T23:08:52.500Z,-2.69
2023-04-08T23:11:21.525Z,-2.81
2023-04-08T23:13:50.646Z,-2.79
2023-04-08T23:16:19.649Z,-2.65
2023-04-08T23:18:48.221Z,-2.49
2023-04-08T23:21:17.465Z,-2.66
2023-04-08T23:23:46.064Z,-2.50
2023-04-08T23:26:22.010Z,-2.47
2023-04-08T23:28:51.018Z,-2.67
2023-04-08T23:31:20.499Z,-3.09
2023-04-08T23:33:49.370Z,-2.48
2023-04-08T23:36:18.585Z,-2.53
2023-04-08T23:38:47.476Z,-2.51
2023-04-08T23:41:16.134Z,-2.68
2023-04-08T23:43:44.670Z,-3.12
2023-04-08T23:46:13.426Z,-2.71
2023-04-08T23:48:42.480Z,-2.84
2023-04-08T23:51:12.564Z,-2.55
2023-04-08T23:53:41.679Z,-2.82
2023-04-08T23:56:11.389Z,-2.65
2023-04-08T23:58:40.139Z,-2.74
